Time;durP1;ratioP1;P1;durP2;ratioP2;P2;SDS_P1;SDS_P2;PMS_P1;PMS_P2;Temp;Humidity;BMP_temperature;BMP_pressure;BME280_temperature;BME280_humidity;BME280_pressure;Samples;Min_cycle;Max_cycle;Signal;HPM_P1;HPM_P2
2022/06/17 00:01:30;;;;;;;14.30;3.60;;;13.90;99.90;;;;;;4980546;28;20109;-70
2022/06/17 00:03:58;;;;;;;6.18;4.10;;;14.10;99.90;;;;;;4981093;28;20058;-70
2022/06/17 00:06:30;;;;;;;5.72;3.42;;;14.30;99.90;;;;;;4982600;28;20027;-68
2022/06/17 00:08:57;;;;;;;6.25;3.28;;;14.50;99.90;;;;;;4982351;28;20467;-67
2022/06/17 00:11:31;;;;;;;7.43;3.85;;;14.60;99.90;;;;;;4978165;28;20041;-68
2022/06/17 00:13:59;;;;;;;9.95;2.70;;;14.70;99.90;;;;;;4982124;28;20034;-68
2022/06/17 00:16:27;;;;;;;7.10;2.45;;;14.90;99.90;;;;;;4980447;28;20039;-68
2022/06/17 00:18:55;;;;;;;3.38;1.92;;;14.90;99.90;;;;;;4979610;28;20105;-71
2022/06/17 00:21:33;;;;;;;17.92;3.03;;;15.10;99.90;;;;;;4983349;28;20062;-66
2022/06/17 00:24:01;;;;;;;7.07;1.73;;;15.20;99.90;;;;;;4983729;28;20097;-67
2022/06/17 00:26:29;;;;;;;10.23;3.33;;;15.30;99.90;;;;;;4979572;28;20435;-67
2022/06/17 00:28:56;;;;;;;5.18;1.88;;;15.60;99.90;;;;;;4963628;28;20030;-67
2022/06/17 00:31:23;;;;;;;2.78;1.27;;;15.70;99.90;;;;;;4979397;28;20034;-71
2022/06/17 00:33:50;;;;;;;3.97;2.20;;;15.90;99.90;;;;;;4982411;28;20104;-72
2022/06/17 00:36:19;;;;;;;2.38;0.70;;;16.00;99.90;;;;;;4980059;28;20044;-69
2022/06/17 00:38:47;;;;;;;1.83;0.70;;;16.20;99.90;;;;;;4981045;28;20042;-67
2022/06/17 00:41:26;;;;;;;2.90;0.80;;;16.20;99.90;;;;;;4983791;28;20018;-70
2022/06/17 00:43:53;;;;;;;3.03;0.80;;;16.30;99.90;;;;;;4979793;28;20019;-67
2022/06/17 00:46:44;;;;;;;2.00;0.65;;;16.40;99.90;;;;;;4979454;28;20114;-68
2022/06/17 00:49:49;;;;;;;0.95;0.60;;;16.50;99.90;;;;;;4959589;28;20026;-69
2022/06/17 00:52:31;;;;;;;4.65;0.82;;;16.50;99.90;;;;;;4905645;29;20067;-68
2022/06/17 00:55:30;;;;;;;1.98;0.55;;;16.60;99.90;;;;;;4903216;29;20044;-74
2022/06/17 00:58:00;;;;;;;4.30;1.85;;;16.70;99.90;;;;;;4867225;29;20169;-68
2022/06/17 01:00:28;;;;;;;2.63;0.82;;;16.70;99.90;;;;;;4868902;29;20140;-69
2022/06/17 01:03:10;;;;;;;4.90;1.67;;;16.80;99.90;;;;;;4869567;29;20183;-70
2022/06/17 01:05:51;;;;;;;3.78;1.15;;;17.10;99.90;;;;;;4871540;29;20028;-69
2022/06/17 01:11:27;;;;;;;3.72;0.45;;;17.50;99.90;;;;;;4870956;29;20037;-71
2022/06/17 01:13:55;;;;;;;1.45;0.55;;;17.50;99.90;;;;;;4864883;29;20041;-69
2022/06/17 01:16:27;;;;;;;2.85;0.40;;;17.70;99.90;;;;;;4872189;29;20026;-70
2022/06/17 01:18:56;;;;;;;4.63;0.70;;;18.00;99.90;;;;;;4868288;29;20594;-75
2022/06/17 01:21:38;;;;;;;2.38;0.60;;;18.10;99.90;;;;;;4869781;29;20034;-69
2022/06/17 01:24:09;;;;;;;0.73;0.45;;;18.10;99.50;;;;;;4868243;29;20063;-68
2022/06/17 01:26:37;;;;;;;0.52;0.52;;;18.20;98.80;;;;;;4919796;29;20464;-76
2022/06/17 01:29:13;;;;;;;1.73;0.90;;;18.10;98.30;;;;;;4947015;29;20146;-69
2022/06/17 01:31:45;;;;;;;3.10;0.52;;;18.20;98.40;;;;;;4930641;29;20039;-69
2022/06/17 01:34:13;;;;;;;4.68;1.00;;;18.20;98.40;;;;;;4959993;28;20078;-76
2022/06/17 01:36:47;;;;;;;4.85;1.00;;;18.30;98.60;;;;;;4980514;28;20049;-71
2022/06/17 01:39:17;;;;;;;0.90;0.40;;;18.50;99.00;;;;;;4978535;28;20022;-68
2022/06/17 01:41:47;;;;;;;4.85;0.73;;;18.60;97.90;;;;;;4984925;28;20030;-67
2022/06/17 01:44:20;;;;;;;0.60;0.30;;;18.80;98.00;;;;;;4983530;28;20031;-68
2022/06/17 01:46:51;;;;;;;3.47;0.50;;;18.70;97.00;;;;;;4981974;28;20439;-72
2022/06/17 01:49:40;;;;;;;1.55;0.70;;;18.70;97.30;;;;;;4984802;28;20064;-72
2022/06/17 01:52:38;;;;;;;1.60;0.40;;;18.70;97.30;;;;;;4979456;28;20028;-69
2022/06/17 01:55:12;;;;;;;0.82;0.50;;;19.00;96.70;;;;;;4977101;28;20535;-69
2022/06/17 01:58:08;;;;;;;1.70;0.50;;;19.10;95.80;;;;;;4981523;28;20551;-67
2022/06/17 02:00:36;;;;;;;4.00;0.40;;;19.10;96.60;;;;;;4980072;28;20387;-67
2022/06/17 02:03:12;;;;;;;3.00;0.52;;;19.20;96.90;;;;;;4985274;28;20558;-70
2022/06/17 02:05:42;;;;;;;1.02;0.40;;;19.40;95.20;;;;;;4987286;28;20034;-69
2022/06/17 02:08:10;;;;;;;0.68;0.38;;;19.50;96.10;;;;;;4987493;28;20517;-67
2022/06/17 02:10:41;;;;;;;0.65;0.40;;;19.60;95.60;;;;;;4987172;28;20169;-69
2022/06/17 02:13:09;;;;;;;1.85;0.80;;;19.40;94.60;;;;;;4983510;28;20055;-67
2022/06/17 02:15:37;;;;;;;2.13;0.65;;;19.50;94.80;;;;;;4984766;28;20026;-67
2022/06/17 02:18:08;;;;;;;0.17;0.17;;;19.50;94.70;;;;;;4989089;28;20105;-70
2022/06/17 02:20:39;;;;;;;0.30;0.30;;;19.50;94.40;;;;;;4987495;28;20057;-70
2022/06/17 02:23:06;;;;;;;0.77;0.50;;;19.40;94.30;;;;;;4985821;28;20027;-69
2022/06/17 02:25:41;;;;;;;2.28;1.08;;;19.40;94.30;;;;;;4985216;28;20019;-70
2022/06/17 02:28:09;;;;;;;0.40;0.40;;;19.40;94.70;;;;;;4986073;28;20019;-72
2022/06/17 02:30:37;;;;;;;2.03;0.45;;;19.50;94.10;;;;;;4985487;28;20054;-67
2022/06/17 02:33:07;;;;;;;2.38;0.50;;;19.60;94.30;;;;;;4985492;28;20045;-71
2022/06/17 02:35:44;;;;;;;2.47;0.70;;;19.60;93.90;;;;;;4987092;28;20122;-68
2022/06/17 02:38:25;;;;;;;0.30;0.30;;;19.60;94.00;;;;;;4989213;28;20026;-68
2022/06/17 02:40:56;;;;;;;1.65;0.40;;;19.70;93.90;;;;;;4981132;28;20077;-66
2022/06/17 02:43:28;;;;;;;1.17;0.40;;;19.80;93.80;;;;;;4985744;28;20076;-68
2022/06/17 02:46:05;;;;;;;0.30;0.30;;;19.80;93.90;;;;;;4986717;28;20027;-67
2022/06/17 02:48:43;;;;;;;1.17;0.22;;;19.70;93.30;;;;;;4985702;28;20097;-70
2022/06/17 02:51:13;;;;;;;1.58;0.40;;;19.70;93.90;;;;;;4982773;28;20119;-70
2022/06/17 02:53:42;;;;;;;0.45;0.40;;;19.80;93.40;;;;;;4979072;28;20041;-67
2022/06/17 02:56:21;;;;;;;0.57;0.30;;;20.00;93.70;;;;;;4985155;28;20106;-68
2022/06/17 02:59:25;;;;;;;0.40;0.40;;;20.00;93.90;;;;;;4984291;28;20432;-68
2022/06/17 03:02:03;;;;;;;0.40;0.40;;;20.10;93.00;;;;;;4977696;28;20049;-71
2022/06/17 03:04:32;;;;;;;1.80;0.45;;;20.10;93.00;;;;;;4981424;28;20468;-67
2022/06/17 03:07:00;;;;;;;2.33;0.52;;;20.00;92.90;;;;;;4985755;28;20034;-64
2022/06/17 03:09:33;;;;;;;0.20;0.20;;;19.90;92.90;;;;;;4981649;28;20050;-68
2022/06/17 03:12:20;;;;;;;0.43;0.32;;;20.00;93.00;;;;;;4982129;28;20475;-68
2022/06/17 03:15:01;;;;;;;1.73;0.43;;;20.10;93.40;;;;;;4963517;28;20038;-67
2022/06/17 03:17:29;;;;;;;3.78;0.50;;;20.10;92.80;;;;;;4982909;28;20066;-68
2022/06/17 03:19:59;;;;;;;5.45;0.50;;;20.10;93.00;;;;;;4984133;28;20062;-66
2022/06/17 03:22:28;;;;;;;0.95;0.40;;;20.00;93.00;;;;;;4985075;28;20025;-73
2022/06/17 03:25:10;;;;;;;1.17;0.40;;;19.90;92.90;;;;;;4983117;28;20018;-66
2022/06/17 03:27:46;;;;;;;4.68;1.00;;;19.90;92.90;;;;;;4985107;28;20535;-73
2022/06/17 03:30:18;;;;;;;2.22;0.80;;;20.10;93.30;;;;;;4984660;28;20086;-64
2022/06/17 03:32:49;;;;;;;3.50;0.60;;;20.10;92.80;;;;;;4987367;28;20015;-72
2022/06/17 03:35:31;;;;;;;2.17;0.45;;;20.10;92.30;;;;;;4987041;28;20504;-68
2022/06/17 03:38:23;;;;;;;1.97;0.67;;;20.10;92.60;;;;;;4982334;28;20023;-66
2022/06/17 03:40:56;;;;;;;1.83;0.35;;;20.20;93.10;;;;;;4987120;28;20026;-67
2022/06/17 03:43:45;;;;;;;0.50;0.30;;;20.40;92.70;;;;;;4987841;28;20044;-67
2022/06/17 03:46:13;;;;;;;0.57;0.45;;;20.40;92.20;;;;;;4982143;28;20403;-68
2022/06/17 03:49:11;;;;;;;1.02;0.40;;;20.50;92.30;;;;;;4985483;28;20497;-66
2022/06/17 03:51:42;;;;;;;7.32;0.90;;;20.40;91.80;;;;;;4984004;28;20030;-69
2022/06/17 03:54:15;;;;;;;3.78;0.45;;;20.30;92.40;;;;;;4637096;28;9999897;-66
2022/06/17 03:56:51;;;;;;;3.10;0.82;;;20.10;92.20;;;;;;4963976;28;20112;-66
2022/06/17 03:59:30;;;;;;;1.85;0.60;;;20.10;92.60;;;;;;4980938;28;20038;-68
2022/06/17 04:02:06;;;;;;;0.80;0.40;;;20.30;92.60;;;;;;4980054;28;20487;-66
2022/06/17 04:04:38;;;;;;;0.40;0.35;;;20.50;91.70;;;;;;4981664;28;20035;-68
2022/06/17 04:07:05;;;;;;;0.70;0.38;;;20.50;91.80;;;;;;4982200;28;20022;-68
2022/06/17 04:09:39;;;;;;;0.35;0.32;;;20.50;91.90;;;;;;4985028;28;20029;-68
2022/06/17 04:12:28;;;;;;;2.17;0.57;;;20.30;92.30;;;;;;4982672;28;20034;-72
2022/06/17 04:15:25;;;;;;;0.82;0.50;;;20.10;92.50;;;;;;4981444;28;20641;-67
2022/06/17 04:17:53;;;;;;;4.70;0.80;;;20.20;92.10;;;;;;4983237;28;20375;-70
2022/06/17 04:20:54;;;;;;;3.28;0.52;;;20.10;92.20;;;;;;4983690;28;20026;-67
2022/06/17 04:23:31;;;;;;;10.02;0.77;;;19.60;92.40;;;;;;4979850;28;20110;-65
2022/06/17 04:26:13;;;;;;;3.20;0.70;;;19.60;93.20;;;;;;4984534;28;20022;-67
2022/06/17 04:28:55;;;;;;;1.77;0.40;;;20.10;92.70;;;;;;4982285;28;20022;-67
2022/06/17 04:31:24;;;;;;;3.38;0.73;;;20.50;92.50;;;;;;4973625;28;20050;-67
2022/06/17 04:34:03;;;;;;;4.43;0.30;;;20.90;91.90;;;;;;4971356;28;20035;-65
2022/06/17 04:36:33;;;;;;;0.50;0.40;;;20.80;91.30;;;;;;4980742;28;20051;-67
2022/06/17 04:39:17;;;;;;;2.22;0.50;;;20.70;91.30;;;;;;4981854;28;20399;-67
2022/06/17 04:41:45;;;;;;;6.00;0.75;;;20.40;91.90;;;;;;4972263;28;20030;-66
2022/06/17 04:44:15;;;;;;;2.33;0.68;;;20.40;92.00;;;;;;4972621;28;20479;-65
2022/06/17 04:46:43;;;;;;;1.25;0.45;;;20.50;91.60;;;;;;4984359;28;20042;-69
2022/06/17 04:49:26;;;;;;;2.20;0.50;;;20.40;91.40;;;;;;4982175;28;20022;-67
2022/06/17 04:52:24;;;;;;;2.78;1.10;;;20.20;91.40;;;;;;4980741;28;20475;-68
2022/06/17 04:54:51;;;;;;;0.43;0.40;;;20.00;92.40;;;;;;4980002;28;20752;-69
2022/06/17 04:57:18;;;;;;;1.35;0.60;;;20.20;92.10;;;;;;4981238;28;20046;-69
2022/06/17 04:59:47;;;;;;;1.38;0.30;;;20.40;92.00;;;;;;4976465;28;20034;-67
2022/06/17 05:02:17;;;;;;;0.70;0.50;;;20.50;91.40;;;;;;4978677;28;20142;-67
2022/06/17 05:04:46;;;;;;;3.70;0.30;;;20.20;91.60;;;;;;4978964;28;20062;-68
2022/06/17 05:07:15;;;;;;;1.20;0.43;;;20.00;92.30;;;;;;4981376;28;20026;-68
2022/06/17 05:09:53;;;;;;;7.93;0.80;;;19.80;92.20;;;;;;4982666;28;20018;-70
2022/06/17 05:12:26;;;;;;;6.15;1.02;;;20.00;92.60;;;;;;4978682;28;20089;-64
2022/06/17 05:15:08;;;;;;;0.47;0.47;;;20.10;92.80;;;;;;4982517;28;20019;-66
2022/06/17 05:17:35;;;;;;;0.30;0.30;;;19.90;92.40;;;;;;4980810;28;20061;-65
2022/06/17 05:20:03;;;;;;;1.67;0.30;;;19.90;92.60;;;;;;4953667;28;20034;-66
2022/06/17 05:22:34;;;;;;;6.35;1.00;;;19.80;92.10;;;;;;4979930;28;20055;-70
2022/06/17 05:25:04;;;;;;;6.57;0.80;;;19.80;92.60;;;;;;4965842;28;20505;-65
2022/06/17 05:27:31;;;;;;;1.63;0.70;;;19.50;92.60;;;;;;4983711;28;20018;-69
2022/06/17 05:29:59;;;;;;;1.23;0.40;;;19.50;92.70;;;;;;5012888;23;20066;-65
2022/06/17 05:32:26;;;;;;;0.50;0.40;;;19.40;92.60;;;;;;4963730;28;20421;-67
2022/06/17 05:34:53;;;;;;;0.45;0.30;;;19.50;92.50;;;;;;4957533;28;20403;-68
2022/06/17 05:37:20;;;;;;;2.13;0.55;;;19.90;92.10;;;;;;4958826;28;20039;-68
2022/06/17 05:39:47;;;;;;;2.75;0.52;;;20.40;91.80;;;;;;4960805;28;20494;-66
2022/06/17 05:42:14;;;;;;;1.42;0.88;;;20.50;91.10;;;;;;4961849;28;20035;-65
2022/06/17 05:44:41;;;;;;;0.63;0.63;;;20.00;92.00;;;;;;4958046;28;20026;-72
2022/06/17 05:47:09;;;;;;;1.23;0.68;;;19.80;91.90;;;;;;4950751;28;20089;-71
2022/06/17 05:49:36;;;;;;;1.70;0.50;;;19.60;92.30;;;;;;4961504;28;20054;-70
2022/06/17 05:52:04;;;;;;;0.98;0.45;;;19.20;93.00;;;;;;4952444;28;20024;-69
2022/06/17 05:54:31;;;;;;;1.30;0.70;;;19.00;93.10;;;;;;4942534;28;20118;-72
2022/06/17 05:56:58;;;;;;;1.63;0.90;;;18.60;93.90;;;;;;4960955;28;20035;-67
2022/06/17 05:59:25;;;;;;;2.67;1.25;;;18.40;94.30;;;;;;4957748;28;20118;-69
2022/06/17 06:01:52;;;;;;;3.20;0.80;;;18.30;94.40;;;;;;4951334;28;20027;-74
2022/06/17 06:04:19;;;;;;;3.15;0.85;;;18.10;94.60;;;;;;4942055;29;20432;-73
2022/06/17 06:06:47;;;;;;;0.98;0.63;;;18.00;94.70;;;;;;4941257;29;20043;-70
2022/06/17 06:09:14;;;;;;;1.90;0.75;;;17.80;95.40;;;;;;4934081;29;20059;-74
2022/06/17 06:11:41;;;;;;;2.33;0.98;;;17.80;95.40;;;;;;4939985;29;20481;-70
2022/06/17 06:14:08;;;;;;;3.70;0.93;;;17.70;95.80;;;;;;4934686;29;20028;-69
2022/06/17 06:16:38;;;;;;;5.35;1.05;;;17.80;95.50;;;;;;4937858;29;20027;-73
2022/06/17 06:19:05;;;;;;;1.58;0.98;;;17.80;95.10;;;;;;4938937;29;20035;-73
2022/06/17 06:21:33;;;;;;;2.70;1.85;;;17.70;95.90;;;;;;4936035;29;20110;-69
2022/06/17 06:24:00;;;;;;;4.22;1.90;;;17.80;95.80;;;;;;4930939;29;20015;-70
2022/06/17 06:26:27;;;;;;;3.75;1.80;;;17.80;95.50;;;;;;4935159;29;20430;-69
2022/06/17 06:28:57;;;;;;;2.67;1.77;;;17.70;95.60;;;;;;4931960;29;20028;-71
2022/06/17 06:31:36;;;;;;;8.15;2.50;;;17.60;96.30;;;;;;4952122;28;20095;-68
2022/06/17 06:34:03;;;;;;;3.20;1.77;;;17.50;96.10;;;;;;4952627;28;20038;-69
2022/06/17 06:36:31;;;;;;;4.30;1.95;;;17.50;96.70;;;;;;4962825;28;20652;-72
2022/06/17 06:38:58;;;;;;;4.00;1.88;;;17.30;95.80;;;;;;4961499;28;20555;-71
2022/06/17 06:41:26;;;;;;;4.53;1.92;;;17.10;96.70;;;;;;4957014;28;20023;-70
2022/06/17 06:43:53;;;;;;;4.43;1.77;;;17.00;96.70;;;;;;4939991;29;20041;-67
2022/06/17 06:46:24;;;;;;;5.38;1.95;;;16.70;97.20;;;;;;4961246;28;20117;-69
2022/06/17 06:48:52;;;;;;;2.65;1.45;;;16.50;97.80;;;;;;4943302;28;20027;-65
2022/06/17 06:51:20;;;;;;;2.63;1.65;;;16.40;97.20;;;;;;4961220;28;20031;-67
2022/06/17 06:53:47;;;;;;;5.20;1.63;;;16.20;97.70;;;;;;4964738;28;20039;-65
2022/06/17 06:56:15;;;;;;;2.70;1.35;;;16.10;98.00;;;;;;4958474;28;20094;-70
2022/06/17 06:58:42;;;;;;;3.15;1.65;;;16.00;98.20;;;;;;4965184;28;20026;-70
2022/06/17 07:01:09;;;;;;;5.80;1.55;;;15.90;98.40;;;;;;4966693;28;20184;-69
2022/06/17 07:03:36;;;;;;;2.92;1.67;;;15.90;98.30;;;;;;4957740;28;20110;-66
2022/06/17 07:06:05;;;;;;;4.38;2.10;;;15.80;98.60;;;;;;4959985;28;20019;-68
2022/06/17 07:08:34;;;;;;;2.58;1.52;;;15.80;98.80;;;;;;4957131;28;20133;-65
2022/06/17 07:11:03;;;;;;;4.95;1.83;;;15.80;98.70;;;;;;4963651;28;20022;-66
2022/06/17 07:13:32;;;;;;;3.28;1.90;;;15.70;99.10;;;;;;4965479;28;20129;-67
2022/06/17 07:16:00;;;;;;;2.53;1.65;;;15.70;99.10;;;;;;4967408;28;20037;-72
2022/06/17 07:18:30;;;;;;;4.18;2.10;;;15.70;99.20;;;;;;4966246;28;20027;-70
2022/06/17 07:21:01;;;;;;;7.53;4.13;;;15.70;99.10;;;;;;4967348;28;20118;-68
2022/06/17 07:23:35;;;;;;;8.00;4.35;;;15.70;99.10;;;;;;4965569;28;20041;-70
2022/06/17 07:26:17;;;;;;;4.13;2.03;;;15.80;99.20;;;;;;4965473;28;20053;-72
2022/06/17 07:28:46;;;;;;;4.82;2.08;;;15.80;99.50;;;;;;4964073;28;20109;-71
2022/06/17 07:31:14;;;;;;;3.50;1.95;;;15.90;98.80;;;;;;4964781;28;20106;-67
2022/06/17 07:33:42;;;;;;;3.58;2.33;;;15.90;98.80;;;;;;4946636;28;20035;-72
2022/06/17 07:41:58;;;;;;;11.25;3.63;;;15.90;99.60;;;;;;4883201;29;20062;-71
2022/06/17 07:44:26;;;;;;;4.13;1.80;;;15.80;99.90;;;;;;4885002;29;20124;-70
2022/06/17 07:46:53;;;;;;;5.07;2.95;;;15.70;99.50;;;;;;4885008;29;20129;-69
2022/06/17 07:49:20;;;;;;;3.90;1.65;;;15.60;99.90;;;;;;4882259;29;20032;-74
2022/06/17 07:51:47;;;;;;;2.88;1.55;;;15.50;99.90;;;;;;4885695;29;20088;-70
2022/06/17 07:54:16;;;;;;;3.55;1.52;;;15.40;99.90;;;;;;4884977;29;20047;-76
2022/06/17 07:56:43;;;;;;;2.67;1.30;;;15.30;99.90;;;;;;4885678;29;20041;-70
2022/06/17 07:59:11;;;;;;;2.72;1.55;;;15.10;99.90;;;;;;4884778;29;20033;-73
2022/06/17 08:01:38;;;;;;;2.47;1.40;;;15.00;99.90;;;;;;4885200;29;20105;-72
2022/06/17 08:04:06;;;;;;;3.70;1.42;;;14.90;99.90;;;;;;4885376;29;20033;-71
2022/06/17 08:06:33;;;;;;;4.07;2.05;;;14.80;99.90;;;;;;4886374;29;20040;-73
2022/06/17 08:09:00;;;;;;;3.97;2.47;;;14.70;99.90;;;;;;4884945;29;20041;-70
2022/06/17 08:11:27;;;;;;;2.70;1.58;;;14.50;99.90;;;;;;4885980;29;20089;-75
2022/06/17 08:13:55;;;;;;;4.22;2.17;;;14.30;99.90;;;;;;4884831;29;20044;-73
2022/06/17 08:16:23;;;;;;;4.07;2.10;;;14.20;99.90;;;;;;4931690;28;20527;-74
2022/06/17 08:18:50;;;;;;;3.38;2.17;;;14.20;99.90;;;;;;4962610;28;20030;-74
2022/06/17 08:21:17;;;;;;;1.92;1.38;;;14.20;99.90;;;;;;4965550;28;20027;-73
2022/06/17 08:23:46;;;;;;;5.25;2.88;;;14.10;99.90;;;;;;4961499;28;20041;-69
2022/06/17 08:26:13;;;;;;;7.43;3.47;;;14.10;99.90;;;;;;4963720;28;20027;-72
2022/06/17 08:28:40;;;;;;;3.63;2.05;;;14.00;99.90;;;;;;4962578;28;20651;-70
2022/06/17 08:31:08;;;;;;;3.42;1.60;;;13.90;99.90;;;;;;4963829;28;20058;-73
2022/06/17 08:33:35;;;;;;;3.72;2.45;;;13.80;99.90;;;;;;4964496;28;20034;-69
2022/06/17 08:36:15;;;;;;;4.63;1.92;;;13.70;99.90;;;;;;4962176;28;20046;-71
2022/06/17 08:39:04;;;;;;;3.17;1.77;;;13.60;99.90;;;;;;4965709;28;20034;-69
2022/06/17 08:41:40;;;;;;;6.25;2.83;;;13.50;99.90;;;;;;4961873;28;20053;-68
2022/06/17 08:44:16;;;;;;;5.13;3.55;;;13.20;99.90;;;;;;4963748;28;20797;-67
2022/06/17 08:46:50;;;;;;;4.35;1.77;;;13.10;99.90;;;;;;4963988;28;20070;-70
2022/06/17 08:49:45;;;;;;;5.43;1.65;;;13.00;99.90;;;;;;4963845;28;20023;-68
2022/06/17 08:52:37;;;;;;;3.58;2.55;;;13.00;99.90;;;;;;4963310;28;20376;-69
2022/06/17 08:55:23;;;;;;;4.30;2.85;;;13.00;99.90;;;;;;4962386;28;20033;-72
2022/06/17 08:57:59;;;;;;;6.75;3.17;;;12.80;99.90;;;;;;4962282;28;20039;-69
2022/06/17 09:00:42;;;;;;;6.03;3.30;;;12.60;99.90;;;;;;4963204;28;20770;-66
2022/06/17 09:03:21;;;;;;;3.95;3.10;;;12.60;99.90;;;;;;4963219;28;20039;-67
2022/06/17 09:06:01;;;;;;;5.05;2.45;;;12.40;99.90;;;;;;4962398;28;20042;-69
2022/06/17 09:08:56;;;;;;;5.10;3.10;;;12.40;99.90;;;;;;4960630;28;20038;-65
2022/06/17 09:11:52;;;;;;;11.25;8.07;;;12.30;99.90;;;;;;4963100;28;20066;-68
2022/06/17 09:14:22;;;;;;;4.85;2.42;;;12.30;99.90;;;;;;4963929;28;20109;-65
2022/06/17 09:16:52;;;;;;;8.60;3.33;;;12.40;99.90;;;;;;4963107;28;20113;-66
2022/06/17 09:19:26;;;;;;;3.00;2.22;;;12.40;99.90;;;;;;4960382;28;20552;-69
2022/06/17 09:21:58;;;;;;;2.95;2.10;;;12.40;99.90;;;;;;4961551;28;20035;-68
2022/06/17 09:24:32;;;;;;;3.95;2.00;;;12.40;99.90;;;;;;4960056;28;20586;-68
2022/06/17 09:27:06;;;;;;;4.07;2.20;;;12.30;99.90;;;;;;4960968;28;20114;-68
2022/06/17 09:29:51;;;;;;;2.53;1.70;;;12.30;99.90;;;;;;4959428;28;20043;-66
2022/06/17 09:32:26;;;;;;;3.63;2.00;;;12.10;99.90;;;;;;4960667;28;20038;-64
2022/06/17 09:35:09;;;;;;;4.50;2.28;;;11.90;99.90;;;;;;4959900;28;20031;-64
2022/06/17 09:37:56;;;;;;;2.03;1.50;;;11.80;99.90;;;;;;4961012;28;20109;-65
2022/06/17 09:41:22;;;;;;;3.47;2.03;;;11.70;99.90;;;;;;4958425;28;20046;-68
2022/06/17 09:43:52;;;;;;;3.33;1.90;;;11.80;99.90;;;;;;4863740;29;20061;-67
2022/06/17 09:46:44;;;;;;;3.35;1.85;;;11.70;99.90;;;;;;4865872;29;20032;-67
2022/06/17 09:49:22;;;;;;;4.53;1.40;;;11.50;99.90;;;;;;4861098;29;20052;-67
2022/06/17 09:52:07;;;;;;;2.47;1.60;;;11.50;99.90;;;;;;4864304;29;20395;-66
2022/06/17 09:54:56;;;;;;;6.45;2.13;;;11.40;99.90;;;;;;4864142;29;20041;-67
2022/06/17 09:58:07;;;;;;;2.90;1.88;;;11.30;99.90;;;;;;4863135;29;21476;-65
2022/06/17 10:00:44;;;;;;;5.85;2.15;;;11.20;99.90;;;;;;4807821;29;20606;-66
2022/06/17 10:03:17;;;;;;;4.65;1.80;;;11.20;99.90;;;;;;4799350;29;21325;-66
2022/06/17 10:06:06;;;;;;;5.68;1.90;;;11.40;99.90;;;;;;4805107;29;20043;-68
2022/06/17 10:08:50;;;;;;;7.78;2.13;;;11.40;99.90;;;;;;4804707;29;20038;-67
2022/06/17 10:11:34;;;;;;;6.65;2.58;;;11.40;99.90;;;;;;4804733;29;20934;-68
2022/06/17 10:14:25;;;;;;;4.28;2.08;;;11.50;99.90;;;;;;4834015;29;20454;-67
2022/06/17 10:20:43;;;;;;;7.97;1.80;;;11.50;99.90;;;;;;4882865;29;20072;-64
2022/06/17 10:23:21;;;;;;;8.93;2.03;;;11.50;99.90;;;;;;4883264;29;20037;-65
2022/06/17 10:26:06;;;;;;;6.55;2.25;;;11.60;99.90;;;;;;4886984;29;20465;-64
2022/06/17 10:28:42;;;;;;;4.10;1.55;;;11.50;99.90;;;;;;4886383;29;20041;-64
2022/06/17 10:31:43;;;;;;;2.05;1.60;;;11.30;99.90;;;;;;4886415;29;20243;-70
2022/06/17 10:34:18;;;;;;;2.97;2.55;;;11.20;99.90;;;;;;4884863;29;20040;-66
2022/06/17 10:36:47;;;;;;;5.97;2.08;;;11.10;99.90;;;;;;4911176;28;20073;-68
2022/06/17 10:39:17;;;;;;;2.40;1.90;;;11.20;99.90;;;;;;4965328;28;20065;-68
2022/06/17 10:41:45;;;;;;;3.65;1.85;;;11.10;99.90;;;;;;4964596;28;20058;-68
2022/06/17 10:44:18;;;;;;;3.85;1.50;;;11.10;99.90;;;;;;4962536;28;20753;-69
2022/06/17 10:47:20;;;;;;;3.50;2.03;;;11.10;99.90;;;;;;4946906;28;20110;-66
2022/06/17 10:49:54;;;;;;;4.65;2.40;;;10.90;99.90;;;;;;4953937;28;20126;-67
2022/06/17 10:52:40;;;;;;;5.05;2.83;;;10.90;99.90;;;;;;4964172;28;20619;-64
2022/06/17 10:55:20;;;;;;;5.15;2.75;;;10.90;99.90;;;;;;4965202;28;20604;-64
2022/06/17 10:58:27;;;;;;;4.85;2.80;;;10.80;99.90;;;;;;4963827;28;20031;-68
2022/06/17 11:00:59;;;;;;;3.92;2.95;;;10.80;99.90;;;;;;4963664;28;20037;-68
2022/06/17 11:03:38;;;;;;;5.43;4.03;;;10.80;99.90;;;;;;4963692;28;20027;-66
2022/06/17 11:06:19;;;;;;;9.98;6.82;;;10.90;99.90;;;;;;4963415;28;20042;-66
2022/06/17 11:08:50;;;;;;;5.75;4.15;;;10.90;99.90;;;;;;4963263;28;20038;-65
2022/06/17 11:14:27;;;;;;;4.85;3.78;;;10.80;99.90;;;;;;4962621;28;20121;-66
2022/06/17 11:16:54;;;;;;;7.00;4.60;;;10.70;99.90;;;;;;4945636;28;20038;-68
2022/06/17 11:19:24;;;;;;;6.13;5.13;;;10.70;99.90;;;;;;4964139;28;20031;-68
2022/06/17 11:21:55;;;;;;;7.82;4.97;;;10.70;99.90;;;;;;4965200;28;20027;-63
2022/06/17 11:24:40;;;;;;;6.35;5.07;;;10.70;99.90;;;;;;4948091;28;20027;-63
2022/06/17 11:27:17;;;;;;;6.18;4.50;;;10.70;99.90;;;;;;4948058;28;20089;-64
2022/06/17 11:29:47;;;;;;;5.90;4.75;;;10.80;99.90;;;;;;4966421;28;20039;-63
2022/06/17 11:32:20;;;;;;;5.43;4.35;;;10.80;99.90;;;;;;4964315;28;20058;-65
2022/06/17 11:34:55;;;;;;;5.57;3.95;;;10.70;99.90;;;;;;4963522;28;20102;-65
2022/06/17 11:37:27;;;;;;;6.05;3.75;;;10.70;99.90;;;;;;4964214;28;20398;-62
2022/06/17 11:40:23;;;;;;;6.57;5.45;;;10.60;99.90;;;;;;4964514;28;20034;-67
2022/06/17 11:42:58;;;;;;;6.28;4.00;;;10.40;99.90;;;;;;4964231;28;20035;-67
2022/06/17 11:45:33;;;;;;;5.60;4.15;;;10.40;99.90;;;;;;4965866;28;20022;-67
2022/06/17 11:48:06;;;;;;;6.07;3.13;;;10.20;99.90;;;;;;4964066;28;20119;-66
2022/06/17 11:50:37;;;;;;;5.38;3.35;;;10.10;99.90;;;;;;4965089;28;20022;-67
2022/06/17 11:53:12;;;;;;;3.33;2.88;;;10.20;99.90;;;;;;4964256;28;20026;-65
2022/06/17 11:55:45;;;;;;;5.47;3.47;;;10.30;99.90;;;;;;4965997;28;20050;-66
2022/06/17 11:58:16;;;;;;;8.45;3.25;;;10.30;99.90;;;;;;4965062;28;20608;-68
2022/06/17 12:00:49;;;;;;;4.20;3.30;;;10.30;99.90;;;;;;4964544;28;20048;-68
2022/06/17 12:03:18;;;;;;;;;;;10.60;99.90;;;;;;4965335;28;20054;-67
2022/06/17 12:06:00;;;;;;;4.13;3.53;;;10.70;99.90;;;;;;4964976;28;19918;-67
2022/06/17 12:09:06;;;;;;;6.03;3.28;;;10.80;99.90;;;;;;4962611;28;20022;-66
2022/06/17 12:11:52;;;;;;;4.32;3.22;;;10.80;99.90;;;;;;4889465;29;20087;-66
2022/06/17 12:14:55;;;;;;;4.68;2.90;;;10.70;99.90;;;;;;4905474;29;20047;-66
2022/06/17 12:17:23;;;;;;;3.08;2.33;;;10.80;99.90;;;;;;4905571;29;20184;-64
2022/06/17 12:19:50;;;;;;;3.95;2.78;;;10.90;99.90;;;;;;4904342;29;20073;-68
2022/06/17 12:22:20;;;;;;;5.60;3.78;;;10.80;99.90;;;;;;4902979;29;20777;-68
2022/06/17 12:25:14;;;;;;;5.25;3.15;;;10.70;99.90;;;;;;4904518;29;20835;-70
2022/06/17 12:28:26;;;;;;;5.47;2.80;;;10.60;99.90;;;;;;4903399;29;20087;-67
2022/06/17 12:31:20;;;;;;;5.75;2.83;;;10.60;99.90;;;;;;4898775;29;20048;-70
2022/06/17 12:34:01;;;;;;;10.27;7.82;;;10.50;99.90;;;;;;4903440;29;20509;-64
2022/06/17 12:36:51;;;;;;;4.07;3.13;;;10.50;99.90;;;;;;4903256;29;20401;-64
2022/06/17 12:39:52;;;;;;;6.85;3.08;;;10.50;99.90;;;;;;4901810;29;20032;-66
2022/06/17 12:42:21;;;;;;;4.20;2.67;;;10.60;99.90;;;;;;4903203;29;20036;-68
2022/06/17 12:45:06;;;;;;;3.50;2.78;;;10.60;99.90;;;;;;4904387;29;20051;-66
2022/06/17 12:48:02;;;;;;;3.85;2.80;;;10.70;99.90;;;;;;4942058;28;20042;-65
2022/06/17 12:53:33;;;;;;;2.75;2.20;;;10.60;99.90;;;;;;4962589;28;20041;-64
2022/06/17 12:56:13;;;;;;;4.15;2.80;;;10.60;99.90;;;;;;4964363;28;20065;-64
2022/06/17 12:59:05;;;;;;;3.05;2.08;;;10.60;99.90;;;;;;4964569;28;20034;-63
2022/06/17 13:01:44;;;;;;;3.03;2.22;;;10.60;99.90;;;;;;4965026;28;20680;-65
2022/06/17 13:04:30;;;;;;;3.58;2.65;;;10.70;99.90;;;;;;4963897;28;20033;-65
2022/06/17 13:07:41;;;;;;;3.90;2.50;;;10.70;99.90;;;;;;4965129;28;20133;-63
2022/06/17 13:10:43;;;;;;;2.33;1.90;;;10.70;99.90;;;;;;4887209;29;20059;-63
2022/06/17 13:13:24;;;;;;;2.63;2.00;;;10.70;99.90;;;;;;4886606;29;20065;-63
2022/06/17 13:16:34;;;;;;;4.60;2.20;;;10.60;99.90;;;;;;4888176;29;20489;-63
2022/06/17 13:19:04;;;;;;;4.28;2.00;;;10.40;99.90;;;;;;4886781;29;20083;-63
2022/06/17 13:21:46;;;;;;;2.75;2.20;;;10.30;99.90;;;;;;4886012;29;20030;-63
2022/06/17 13:24:18;;;;;;;4.27;2.17;;;10.30;99.90;;;;;;4887127;29;20032;-65
2022/06/17 13:26:54;;;;;;;3.90;1.80;;;10.30;99.90;;;;;;4886122;29;20282;-65
2022/06/17 13:29:47;;;;;;;3.70;2.17;;;10.20;99.90;;;;;;4886841;29;20128;-63
2022/06/17 13:32:29;;;;;;;4.22;2.25;;;10.10;99.90;;;;;;4876888;29;20044;-65
2022/06/17 13:35:17;;;;;;;3.95;2.72;;;10.10;99.90;;;;;;4886443;29;20040;-65
2022/06/17 13:37:56;;;;;;;4.78;2.53;;;10.10;99.90;;;;;;4870031;29;20111;-64
2022/06/17 13:40:32;;;;;;;5.18;4.10;;;10.00;99.90;;;;;;4887761;29;20059;-66
2022/06/17 13:43:05;;;;;;;8.15;3.80;;;9.90;99.90;;;;;;4888638;29;20028;-65
2022/06/17 13:45:40;;;;;;;5.28;3.47;;;9.90;99.90;;;;;;4924000;28;20039;-64
2022/06/17 13:48:30;;;;;;;4.32;2.72;;;9.90;99.90;;;;;;4961801;28;20030;-66
2022/06/17 13:51:25;;;;;;;4.93;3.53;;;9.70;99.90;;;;;;4958620;28;20069;-65